createdAt,value
2022-09-04T00:01:46.169Z,4
2022-09-04T00:06:58.005Z,3
2022-09-04T00:12:09.836Z,3
2022-09-04T00:17:22.106Z,3
2022-09-04T00:22:34.126Z,3
2022-09-04T00:27:46.206Z,2
2022-09-04T00:32:58.205Z,3
2022-09-04T00:38:10.425Z,2
2022-09-04T00:43:22.585Z,2
2022-09-04T00:48:34.668Z,2
2022-09-04T00:53:46.656Z,2
2022-09-04T00:58:58.686Z,2
2022-09-04T01:04:10.677Z,2
2022-09-04T01:09:22.497Z,2
2022-09-04T01:14:34.567Z,2
2022-09-04T01:19:47.273Z,2
2022-09-04T01:24:59.108Z,2
2022-09-04T01:30:11.256Z,2
2022-09-04T01:35:23.307Z,3
2022-09-04T01:40:36.787Z,2
2022-09-04T01:45:48.531Z,2
2022-09-04T01:51:00.649Z,2
2022-09-04T01:56:12.488Z,2
2022-09-04T02:01:24.804Z,2
2022-09-04T02:06:36.647Z,2
2022-09-04T02:11:48.630Z,2
2022-09-04T02:17:00.896Z,1
2022-09-04T02:22:12.992Z,1
2022-09-04T02:27:25.110Z,1
2022-09-04T02:32:37.144Z,1
2022-09-04T02:37:49.080Z,1
2022-09-04T02:43:01.242Z,1
2022-09-04T02:48:13.482Z,1
2022-09-04T02:53:25.570Z,1
2022-09-04T02:58:37.739Z,2
2022-09-04T03:03:50.000Z,1
2022-09-04T03:09:06.511Z,1
2022-09-04T03:14:21.831Z,1
2022-09-04T03:19:35.811Z,1
2022-09-04T03:24:48.195Z,2
2022-09-04T03:30:00.242Z,2
2022-09-04T03:35:12.892Z,2
2022-09-04T03:40:24.913Z,2
2022-09-04T03:45:37.072Z,2
2022-09-04T03:50:49.233Z,2
2022-09-04T03:56:01.414Z,2
2022-09-04T04:01:14.021Z,2
2022-09-04T04:06:25.932Z,2
2022-09-04T04:11:44.452Z,2
2022-09-04T04:16:58.501Z,2
2022-09-04T04:22:10.682Z,2
2022-09-04T04:27:24.404Z,2
2022-09-04T04:32:35.833Z,2
2022-09-04T04:37:48.050Z,2
2022-09-04T04:43:00.087Z,2
2022-09-04T04:48:12.361Z,2
2022-09-04T04:53:24.374Z,2
2022-09-04T04:58:36.570Z,3
2022-09-04T05:03:48.841Z,2
2022-09-04T05:09:01.022Z,1
2022-09-04T05:14:14.193Z,1
2022-09-04T05:19:26.402Z,1
2022-09-04T05:24:38.753Z,1
2022-09-04T05:29:51.044Z,0
2022-09-04T05:35:04.552Z,0
2022-09-04T05:40:16.751Z,0
2022-09-04T05:45:28.971Z,0
2022-09-04T05:50:41.137Z,1
2022-09-04T05:55:53.189Z,1
2022-09-04T06:01:05.277Z,1
2022-09-04T06:06:17.309Z,1
2022-09-04T06:11:29.279Z,1
2022-09-04T06:16:41.313Z,2
2022-09-04T06:21:53.566Z,1
2022-09-04T06:27:05.655Z,1
2022-09-04T06:32:17.681Z,1
2022-09-04T06:37:29.605Z,2
2022-09-04T06:42:41.893Z,2
2022-09-04T06:47:54.094Z,2
2022-09-04T06:53:06.206Z,2
2022-09-04T06:58:18.662Z,2
2022-09-04T07:03:30.985Z,3
2022-09-04T07:08:42.925Z,3
2022-09-04T07:13:55.495Z,3
2022-09-04T07:19:07.754Z,4
2022-09-04T07:24:20.024Z,4
2022-09-04T07:29:48.464Z,6
2022-09-04T07:34:57.544Z,6
2022-09-04T07:40:10.066Z,7
2022-09-04T07:45:22.253Z,7
2022-09-04T07:50:34.274Z,8
2022-09-04T07:55:46.267Z,8
2022-09-04T08:00:58.186Z,8
2022-09-04T08:06:10.133Z,8
2022-09-04T08:11:22.428Z,8
2022-09-04T08:16:34.443Z,8
2022-09-04T08:21:46.639Z,8
2022-09-04T08:26:58.761Z,8
2022-09-04T08:32:10.879Z,9
2022-09-04T08:37:23.002Z,9
2022-09-04T08:42:35.181Z,10
2022-09-04T08:47:47.267Z,10
2022-09-04T08:53:04.668Z,10
2022-09-04T08:58:18.956Z,11
2022-09-04T09:03:31.079Z,12
2022-09-04T09:08:43.234Z,11
2022-09-04T09:14:02.698Z,12
2022-09-04T09:19:18.427Z,13
2022-09-04T09:24:30.543Z,14
2022-09-04T09:29:44.192Z,13
2022-09-04T09:34:56.515Z,13
2022-09-04T09:40:09.001Z,14
2022-09-04T09:45:21.159Z,14
2022-09-04T09:50:33.441Z,14
2022-09-04T09:55:45.619Z,14
2022-09-04T10:00:58.011Z,15
2022-09-04T10:06:14.865Z,15
2022-09-04T10:11:29.925Z,16
2022-09-04T10:16:42.838Z,16
2022-09-04T10:21:55.138Z,16
2022-09-04T10:27:08.737Z,14
2022-09-04T10:32:20.966Z,16
2022-09-04T10:37:33.624Z,16
2022-09-04T10:42:46.216Z,18
2022-09-04T10:47:59.718Z,19
2022-09-04T10:53:14.461Z,20
2022-09-04T10:58:27.796Z,20
2022-09-04T11:03:40.126Z,21
2022-09-04T11:08:52.630Z,22
2022-09-04T11:14:05.009Z,24
2022-09-04T11:19:17.949Z,24
2022-09-04T11:24:30.931Z,31
2022-09-04T11:29:44.381Z,34
2022-09-04T11:34:57.693Z,36
2022-09-04T11:40:11.000Z,89
2022-09-04T11:45:24.266Z,84
2022-09-04T11:50:39.671Z,84
2022-09-04T11:55:53.721Z,79
2022-09-04T12:01:10.961Z,77
2022-09-04T12:06:25.053Z,76
2022-09-04T12:11:37.488Z,73
2022-09-04T12:16:50.717Z,72
2022-09-04T12:22:03.480Z,70
2022-09-04T12:27:16.313Z,69
2022-09-04T12:32:29.009Z,69
2022-09-04T12:37:42.017Z,69
2022-09-04T12:42:55.580Z,65
2022-09-04T12:48:08.979Z,61
2022-09-04T13:08:55.291Z,66
2022-09-04T13:19:20.482Z,66
2022-09-04T13:24:33.217Z,65
2022-09-04T13:29:45.904Z,64
2022-09-04T13:55:40.571Z,77
2022-09-04T14:11:15.783Z,80
2022-09-04T14:16:28.530Z,81
2022-09-04T14:30:40.997Z,80
2022-09-04T14:40:53.767Z,77
2022-09-04T14:46:06.478Z,76
2022-09-04T14:51:19.346Z,76
2022-09-04T14:56:32.068Z,76
2022-09-04T15:07:12.952Z,75
2022-09-04T15:12:26.685Z,77
2022-09-04T15:17:43.362Z,72
2022-09-04T15:22:56.523Z,74
2022-09-04T15:28:09.062Z,74
2022-09-04T15:33:27.622Z,75
2022-09-04T15:38:44.469Z,75
2022-09-04T15:43:57.134Z,74
2022-09-04T16:04:41.825Z,77
2022-09-04T16:09:54.806Z,76
2022-09-04T16:15:09.545Z,73
2022-09-04T16:20:21.864Z,76
2022-09-04T16:30:45.065Z,76
2022-09-04T16:35:57.783Z,77
2022-09-04T16:41:10.583Z,77
2022-09-04T16:46:23.815Z,77
2022-09-04T16:56:46.365Z,80
2022-09-04T17:12:22.184Z,86
2022-09-04T17:17:34.125Z,87
2022-09-04T17:29:46.207Z,92
2022-09-04T17:42:05.351Z,93
2022-09-04T17:57:33.020Z,89
2022-09-04T18:08:11.492Z,91
2022-09-04T18:13:39.446Z,92
2022-09-04T18:18:48.208Z,93
2022-09-04T18:24:00.216Z,93
2022-09-04T18:37:48.464Z,94
2022-09-04T18:51:21.489Z,96
2022-09-04T18:56:25.051Z,96
2022-09-04T19:01:37.134Z,95
2022-09-04T19:06:48.960Z,95
2022-09-04T19:12:01.498Z,94
2022-09-04T19:17:14.018Z,93
2022-09-04T19:22:29.752Z,91
2022-09-04T19:27:44.641Z,89
2022-09-04T19:32:57.280Z,87
2022-09-04T19:46:35.716Z,86
2022-09-04T19:53:49.758Z,83
2022-09-04T19:58:54.831Z,79
2022-09-04T20:04:07.270Z,77
2022-09-04T20:09:19.041Z,71
2022-09-04T20:14:31.941Z,72
2022-09-04T20:19:43.941Z,70
2022-09-04T20:25:03.210Z,69
2022-09-04T20:30:20.022Z,69
2022-09-04T20:35:34.465Z,65
2022-09-04T20:40:46.073Z,63
2022-09-04T20:53:21.620Z,59
2022-09-04T21:03:30.422Z,38
2022-09-04T21:08:33.438Z,38
2022-09-04T21:13:46.536Z,39
2022-09-04T21:19:30.578Z,39
2022-09-04T21:24:38.489Z,33
2022-09-04T21:29:50.753Z,34
2022-09-04T21:35:02.976Z,34
2022-09-04T21:40:53.816Z,27
2022-09-04T21:46:13.254Z,25
2022-09-04T21:51:29.992Z,24
2022-09-04T22:03:03.218Z,26
2022-09-04T22:13:51.254Z,29
2022-09-04T22:18:54.209Z,29
2022-09-04T22:24:05.568Z,25
2022-09-04T22:34:27.188Z,21
2022-09-04T22:39:39.672Z,20
2022-09-04T22:44:51.864Z,20
2022-09-04T22:50:04.168Z,19
2022-09-04T22:56:25.740Z,18
2022-09-04T23:01:31.884Z,18
2022-09-04T23:14:12.145Z,18
2022-09-04T23:27:02.579Z,18
2022-09-04T23:32:10.870Z,17
2022-09-04T23:37:23.539Z,17
2022-09-04T23:42:35.337Z,17
2022-09-04T23:47:50.390Z,17
2022-09-04T23:53:01.429Z,17
2022-09-04T23:58:13.450Z,16
